createdAt,value
2023-03-04T00:01:25.008Z,63.00
2023-03-04T00:04:36.620Z,53.50
2023-03-04T00:07:51.429Z,57.25
2023-03-04T00:10:56.482Z,55.75
2023-03-04T00:14:10.992Z,59.00
2023-03-04T00:17:21.329Z,60.75
2023-03-04T00:20:33.908Z,62.75
2023-03-04T00:23:57.455Z,47.50
2023-03-04T00:27:22.336Z,57.25
2023-03-04T00:30:27.074Z,65.75
2023-03-04T00:33:34.065Z,74.75
2023-03-04T00:36:49.131Z,62.50
2023-03-04T00:39:59.332Z,98.75
2023-03-04T00:43:06.139Z,53.50
2023-03-04T00:46:13.772Z,59.50
2023-03-04T00:49:42.351Z,56.25
2023-03-04T00:53:09.678Z,64.75
2023-03-04T00:56:18.656Z,69.50
2023-03-04T00:59:25.410Z,63.75
2023-03-04T01:02:29.913Z,58.50
2023-03-04T01:05:42.331Z,54.75
2023-03-04T01:08:55.601Z,64.50
2023-03-04T01:15:27.249Z,61.00
2023-03-04T01:18:31.022Z,60.00
2023-03-04T01:21:37.236Z,68.25
2023-03-04T01:25:01.485Z,59.00
2023-03-04T01:28:10.596Z,54.50
2023-03-04T01:31:17.515Z,57.00
2023-03-04T01:34:23.802Z,56.75
2023-03-04T01:37:29.743Z,63.00
2023-03-04T01:40:40.050Z,55.75
2023-03-04T01:43:48.136Z,56.75
2023-03-04T01:46:56.050Z,53.25
2023-03-04T01:50:07.291Z,52.75
2023-03-04T01:53:22.120Z,59.25
2023-03-04T01:56:43.012Z,61.75
2023-03-04T02:00:24.075Z,66.75
2023-03-04T02:03:39.890Z,65.25
2023-03-04T02:06:48.188Z,69.00
2023-03-04T02:09:54.425Z,60.50
2023-03-04T02:13:11.584Z,63.50
2023-03-04T02:16:17.770Z,60.75
2023-03-04T02:19:42.602Z,61.50
2023-03-04T02:23:00.157Z,59.50
2023-03-04T02:26:19.404Z,59.25
2023-03-04T02:29:35.430Z,58.75
2023-03-04T02:32:42.678Z,61.25
2023-03-04T02:35:55.262Z,61.00
2023-03-04T02:39:07.933Z,56.00
2023-03-04T02:42:14.524Z,61.75
2023-03-04T02:45:35.522Z,64.50
2023-03-04T02:48:40.502Z,63.25
2023-03-04T02:51:46.337Z,55.25
2023-03-04T02:54:56.463Z,58.25
2023-03-04T02:58:06.140Z,57.00
2023-03-04T03:01:10.526Z,54.25
2023-03-04T03:04:35.157Z,56.50
2023-03-04T03:07:40.105Z,58.00
2023-03-04T03:10:52.280Z,59.25
2023-03-04T03:14:27.222Z,67.00
2023-03-04T03:17:40.393Z,61.50
2023-03-04T03:20:50.970Z,58.75
2023-03-04T03:24:01.964Z,63.50
2023-03-04T03:27:08.714Z,50.25
2023-03-04T03:30:18.017Z,59.25
2023-03-04T03:33:24.665Z,60.00
2023-03-04T03:36:30.083Z,53.00
2023-03-04T03:39:44.304Z,59.50
2023-03-04T03:42:48.632Z,58.75
2023-03-04T03:45:54.108Z,61.25
2023-03-04T03:48:58.652Z,59.75
2023-03-04T03:52:05.671Z,52.50
2023-03-04T03:55:14.147Z,59.50
2023-03-04T03:58:18.720Z,56.50
2023-03-04T04:01:38.617Z,64.25
2023-03-04T04:04:42.345Z,34.00
2023-03-04T04:07:48.519Z,32.25
2023-03-04T04:10:55.450Z,64.00
2023-03-04T04:14:07.679Z,67.50
2023-03-04T04:17:14.613Z,63.50
2023-03-04T04:20:26.360Z,57.00
2023-03-04T04:23:32.544Z,62.00
2023-03-04T04:26:43.391Z,66.50
2023-03-04T04:29:47.814Z,58.25
2023-03-04T04:32:55.790Z,57.00
2023-03-04T04:36:06.281Z,58.50
2023-03-04T04:39:16.529Z,50.50
2023-03-04T04:42:26.104Z,49.75
2023-03-04T04:45:34.801Z,57.00
2023-03-04T04:48:42.507Z,52.75
2023-03-04T04:51:52.480Z,60.00
2023-03-04T04:55:04.011Z,56.50
2023-03-04T04:58:12.680Z,55.75
2023-03-04T05:01:22.502Z,53.50
2023-03-04T05:04:31.101Z,66.25
2023-03-04T05:07:45.725Z,56.25
2023-03-04T05:10:56.484Z,56.75
2023-03-04T05:14:07.527Z,60.50
2023-03-04T05:17:17.356Z,52.50
2023-03-04T05:20:34.812Z,46.75
2023-03-04T05:23:44.342Z,48.75
2023-03-04T05:26:53.070Z,48.75
2023-03-04T05:30:47.303Z,43.75
2023-03-04T05:33:58.634Z,51.75
2023-03-04T05:37:40.108Z,53.50
2023-03-04T05:41:11.170Z,63.75
2023-03-04T05:49:09.124Z,94.00
2023-03-04T05:53:13.278Z,67.50
2023-03-04T05:57:15.441Z,81.25
2023-03-04T06:01:08.215Z,60.00
2023-03-04T06:08:50.456Z,56.50
2023-03-04T06:12:28.941Z,71.75
2023-03-04T06:17:03.444Z,90.75
2023-03-04T06:20:48.655Z,56.00
2023-03-04T06:24:24.506Z,58.50
2023-03-04T06:28:18.110Z,63.00
2023-03-04T06:32:40.168Z,67.25
2023-03-04T06:36:47.572Z,100.50
2023-03-04T06:41:12.230Z,73.25
2023-03-04T06:45:19.113Z,69.75
2023-03-04T06:49:20.301Z,70.50
2023-03-04T06:53:08.155Z,61.00
2023-03-04T06:57:21.958Z,70.00
2023-03-04T07:00:57.327Z,72.00
2023-03-04T07:04:35.274Z,79.00
2023-03-04T07:08:20.614Z,57.50
2023-03-04T07:12:53.095Z,72.75
2023-03-04T07:16:20.641Z,72.50
2023-03-04T07:19:57.334Z,78.50
2023-03-04T07:23:13.634Z,79.25
2023-03-04T07:26:59.073Z,71.50
2023-03-04T07:34:28.860Z,90.75
2023-03-04T07:38:39.289Z,95.75
2023-03-04T07:41:52.110Z,78.25
2023-03-04T07:45:26.452Z,93.25
2023-03-04T07:49:27.800Z,84.00
2023-03-04T07:53:12.655Z,71.25
2023-03-04T07:56:54.873Z,98.00
2023-03-04T08:00:48.659Z,83.75
2023-03-04T08:05:22.329Z,65.50
2023-03-04T08:14:09.706Z,85.50
2023-03-04T08:18:10.379Z,71.25
2023-03-04T08:22:16.504Z,92.00
2023-03-04T08:26:51.453Z,60.50
2023-03-04T08:31:01.919Z,94.50
2023-03-04T08:35:05.984Z,78.25
2023-03-04T08:39:23.572Z,60.50
2023-03-04T08:43:06.689Z,115.67
2023-03-04T08:47:54.861Z,70.25
2023-03-04T08:51:28.300Z,79.00
2023-03-04T08:55:27.796Z,77.00
2023-03-04T08:59:05.816Z,78.50
2023-03-04T09:03:18.964Z,62.00
2023-03-04T09:07:02.837Z,67.75
2023-03-04T09:10:25.005Z,99.00
2023-03-04T09:13:57.009Z,78.00
2023-03-04T09:17:51.022Z,119.33
2023-03-04T09:25:38.171Z,64.75
2023-03-04T09:29:32.376Z,64.75
2023-03-04T09:33:28.568Z,110.67
2023-03-04T09:37:51.070Z,74.75
2023-03-04T09:42:13.834Z,116.67
2023-03-04T09:46:09.118Z,89.50
2023-03-04T09:49:51.893Z,62.00
2023-03-04T09:53:42.894Z,66.75
2023-03-04T09:58:10.005Z,60.25
2023-03-04T10:02:18.133Z,63.50
2023-03-04T10:06:07.772Z,58.25
2023-03-04T10:09:54.302Z,81.25
2023-03-04T10:13:28.943Z,115.00
2023-03-04T10:17:40.560Z,59.75
2023-03-04T10:25:37.284Z,71.75
2023-03-04T10:29:49.095Z,74.25
2023-03-04T10:33:56.978Z,48.00
2023-03-04T10:37:30.418Z,44.00
2023-03-04T10:41:40.865Z,63.50
2023-03-04T10:45:02.651Z,43.50
2023-03-04T10:48:48.886Z,82.50
2023-03-04T10:52:16.764Z,69.50
2023-03-04T10:55:27.186Z,76.50
2023-03-04T10:58:33.797Z,68.00
2023-03-04T11:01:42.948Z,56.50
2023-03-04T11:05:27.451Z,43.25
2023-03-04T11:08:59.389Z,53.50
2023-03-04T11:13:16.689Z,75.50
2023-03-04T11:16:37.124Z,40.00
2023-03-04T11:19:46.686Z,73.00
2023-03-04T11:23:25.545Z,57.00
2023-03-04T11:26:52.331Z,47.25
2023-03-04T11:30:43.794Z,45.25
2023-03-04T11:34:23.644Z,35.00
2023-03-04T11:37:49.363Z,42.75
2023-03-04T11:41:20.994Z,46.75
2023-03-04T11:44:33.234Z,54.25
2023-03-04T11:48:08.200Z,43.00
2023-03-04T11:51:47.609Z,39.75
2023-03-04T11:55:29.917Z,47.25
2023-03-04T11:59:22.208Z,38.75
2023-03-04T12:03:05.899Z,57.75
2023-03-04T12:06:27.228Z,44.25
2023-03-04T12:10:14.662Z,74.00
2023-03-04T12:14:21.626Z,63.00
2023-03-04T12:18:20.804Z,64.25
2023-03-04T12:22:11.619Z,45.00
2023-03-04T12:26:12.789Z,71.75
2023-03-04T12:30:11.315Z,56.25
2023-03-04T12:34:49.511Z,48.75
2023-03-04T12:39:06.331Z,81.00
2023-03-04T12:42:54.609Z,85.00
2023-03-04T12:46:30.107Z,84.50
2023-03-04T12:50:29.617Z,66.00
2023-03-04T12:57:47.604Z,54.25
2023-03-04T13:01:36.334Z,72.50
2023-03-04T13:10:16.069Z,52.50
2023-03-04T13:14:21.908Z,67.50
2023-03-04T13:18:02.083Z,63.75
2023-03-04T13:21:42.703Z,58.25
2023-03-04T13:25:33.426Z,66.25
2023-03-04T13:34:44.980Z,71.25
2023-03-04T13:38:30.095Z,73.00
2023-03-04T13:47:07.931Z,45.00
2023-03-04T13:51:40.616Z,43.00
2023-03-04T14:00:38.087Z,74.00
2023-03-04T14:09:01.388Z,54.00
2023-03-04T14:12:41.321Z,48.25
2023-03-04T14:16:19.808Z,49.75
2023-03-04T14:20:39.050Z,54.00
2023-03-04T14:24:21.545Z,81.75
2023-03-04T14:27:50.122Z,53.00
2023-03-04T14:35:46.853Z,71.00
2023-03-04T14:39:15.096Z,72.75
2023-03-04T14:43:05.269Z,85.50
2023-03-04T14:46:24.178Z,96.00
2023-03-04T14:49:36.776Z,92.50
2023-03-04T14:53:07.768Z,90.25
2023-03-04T14:56:12.244Z,121.67
2023-03-04T14:59:54.211Z,94.25
2023-03-04T15:03:39.415Z,105.67
2023-03-04T15:07:03.183Z,86.00
2023-03-04T15:10:31.158Z,224.00
2023-03-04T15:15:02.482Z,115.33
2023-03-04T15:23:04.698Z,74.00
2023-03-04T15:26:14.152Z,52.50
2023-03-04T15:29:24.184Z,83.75
2023-03-04T15:32:31.522Z,62.75
2023-03-04T15:35:36.419Z,74.50
2023-03-04T15:38:43.392Z,84.50
2023-03-04T15:41:50.887Z,90.75
2023-03-04T15:44:57.235Z,56.75
2023-03-04T15:48:09.753Z,81.50
2023-03-04T15:51:18.253Z,56.00
2023-03-04T15:54:31.364Z,56.00
2023-03-04T15:57:37.366Z,36.50
2023-03-04T16:00:43.074Z,46.25
2023-03-04T16:03:47.180Z,81.50
2023-03-04T16:07:21.368Z,129.67
2023-03-04T16:10:33.209Z,97.50
2023-03-04T16:13:41.929Z,99.50
2023-03-04T16:16:47.052Z,87.25
2023-03-04T16:20:01.519Z,86.50
2023-03-04T16:23:15.489Z,74.50
2023-03-04T16:26:30.072Z,122.00
2023-03-04T16:29:39.368Z,132.67
2023-03-04T16:33:14.194Z,108.33
2023-03-04T16:36:22.347Z,125.33
2023-03-04T16:39:30.660Z,126.00
2023-03-04T16:42:38.190Z,95.33
2023-03-04T16:45:46.409Z,118.00
2023-03-04T16:49:04.333Z,123.33
2023-03-04T16:52:33.430Z,94.50
2023-03-04T16:56:09.069Z,113.25
2023-03-04T17:00:13.782Z,122.00
2023-03-04T17:03:55.111Z,197.33
2023-03-04T17:07:44.159Z,178.00
2023-03-04T17:10:58.093Z,147.67
2023-03-04T17:14:25.590Z,143.33
2023-03-04T17:18:04.577Z,135.33
2023-03-04T17:21:28.334Z,134.67
2023-03-04T17:24:34.188Z,92.67
2023-03-04T17:27:39.693Z,137.00
2023-03-04T17:30:56.828Z,158.67
2023-03-04T17:34:04.576Z,163.67
2023-03-04T17:37:45.112Z,164.67
2023-03-04T17:40:50.367Z,151.67
2023-03-04T17:44:20.784Z,167.00
2023-03-04T17:47:39.399Z,168.67
2023-03-04T17:50:52.985Z,171.67
2023-03-04T17:54:02.741Z,171.67
2023-03-04T17:57:14.113Z,184.67
2023-03-04T18:00:20.275Z,177.67
2023-03-04T18:03:25.449Z,127.33
2023-03-04T18:06:30.577Z,104.67
2023-03-04T18:10:09.402Z,88.75
2023-03-04T18:13:37.401Z,118.33
2023-03-04T18:17:09.521Z,106.00
2023-03-04T18:20:45.804Z,101.67
2023-03-04T18:24:13.281Z,82.50
2023-03-04T18:27:28.337Z,86.75
2023-03-04T18:30:35.684Z,81.50
2023-03-04T18:34:08.937Z,80.25
2023-03-04T18:38:17.307Z,77.25
2023-03-04T18:42:14.465Z,96.50
2023-03-04T18:46:04.002Z,97.50
2023-03-04T18:49:10.669Z,83.50
2023-03-04T18:52:17.543Z,73.00
2023-03-04T18:55:33.220Z,129.00
2023-03-04T18:58:42.860Z,86.50
2023-03-04T19:01:56.000Z,123.67
2023-03-04T19:05:08.010Z,113.00
2023-03-04T19:08:20.079Z,109.33
2023-03-04T19:11:49.937Z,91.00
2023-03-04T19:14:59.060Z,77.25
2023-03-04T19:18:09.477Z,89.25
2023-03-04T19:21:59.495Z,109.33
2023-03-04T19:25:06.482Z,91.25
2023-03-04T19:28:10.670Z,143.00
2023-03-04T19:31:34.580Z,119.00
2023-03-04T19:35:08.314Z,97.25
2023-03-04T19:38:51.223Z,94.00
2023-03-04T19:42:03.281Z,69.00
2023-03-04T19:45:10.528Z,109.50
2023-03-04T19:48:38.438Z,98.75
2023-03-04T19:55:50.586Z,68.75
2023-03-04T19:59:41.948Z,83.75
2023-03-04T20:07:40.716Z,79.00
2023-03-04T20:11:24.218Z,160.75
2023-03-04T20:19:39.314Z,102.67
2023-03-04T20:28:44.172Z,99.75
2023-03-04T20:32:51.630Z,104.67
2023-03-04T20:36:59.978Z,135.00
2023-03-04T20:40:30.550Z,154.00
2023-03-04T20:43:45.471Z,150.00
2023-03-04T20:51:00.886Z,105.00
2023-03-04T20:55:00.937Z,92.25
2023-03-04T20:58:26.843Z,90.00
2023-03-04T21:01:37.594Z,76.75
2023-03-04T21:05:03.623Z,99.00
2023-03-04T21:08:27.585Z,96.75
2023-03-04T21:11:59.672Z,101.75
2023-03-04T21:15:31.028Z,91.75
2023-03-04T21:18:46.612Z,95.00
2023-03-04T21:22:21.394Z,73.25
2023-03-04T21:25:57.149Z,75.25
2023-03-04T21:29:50.455Z,207.67
2023-03-04T21:37:12.349Z,76.25
2023-03-04T21:40:57.541Z,105.33
2023-03-04T21:44:28.857Z,89.25
2023-03-04T21:48:45.051Z,96.00
2023-03-04T21:52:06.118Z,74.75
2023-03-04T21:55:45.974Z,73.00
2023-03-04T22:03:15.788Z,87.00
2023-03-04T22:07:12.906Z,54.75
2023-03-04T22:11:07.732Z,102.67
2023-03-04T22:14:55.432Z,87.75
2023-03-04T22:17:59.966Z,99.50
2023-03-04T22:21:28.755Z,95.75
2023-03-04T22:24:55.473Z,89.75
2023-03-04T22:28:18.800Z,76.00
2023-03-04T22:31:46.918Z,101.33
2023-03-04T22:36:02.467Z,127.00
2023-03-04T22:45:13.778Z,104.00
2023-03-04T22:49:12.403Z,105.33
2023-03-04T22:54:00.723Z,99.25
2023-03-04T22:58:15.792Z,86.75
2023-03-04T23:02:02.954Z,82.25
2023-03-04T23:06:03.802Z,76.75
2023-03-04T23:09:54.709Z,67.75
2023-03-04T23:13:45.606Z,89.00
2023-03-04T23:17:01.398Z,81.00
2023-03-04T23:20:16.300Z,65.25
2023-03-04T23:23:28.007Z,68.50
2023-03-04T23:26:46.472Z,84.50
2023-03-04T23:29:58.148Z,69.75
2023-03-04T23:33:10.667Z,70.50
2023-03-04T23:36:31.217Z,69.75
2023-03-04T23:39:38.910Z,62.25
2023-03-04T23:42:45.499Z,68.00
2023-03-04T23:46:15.595Z,69.00
2023-03-04T23:49:33.454Z,67.25
2023-03-04T23:53:26.413Z,72.75
2023-03-04T23:56:42.150Z,59.25
2023-03-04T23:59:52.116Z,63.00
